sensor_id;sensor_type;location;lat;lon;timestamp;pressure;altitude;pressure_sealevel;temperature;humidity
61769;BME280;47669;48.712;9.016;2024-02-26T00:01:55;94729.84;;;4.82;75.33
61769;BME280;47669;48.712;9.016;2024-02-26T00:04:20;94730.72;;;4.94;75.36
61769;BME280;47669;48.712;9.016;2024-02-26T00:06:46;94722.34;;;4.85;74.92
61769;BME280;47669;48.712;9.016;2024-02-26T00:09:13;94722.44;;;4.79;76.15
61769;BME280;47669;48.712;9.016;2024-02-26T00:11:38;94716.75;;;4.82;75.43
61769;BME280;47669;48.712;9.016;2024-02-26T00:14:04;94721.63;;;4.78;75.99
61769;BME280;47669;48.712;9.016;2024-02-26T00:16:29;94724.97;;;4.67;76.26
61769;BME280;47669;48.712;9.016;2024-02-26T00:18:55;94718.41;;;4.76;76.68
61769;BME280;47669;48.712;9.016;2024-02-26T00:21:20;94731.06;;;4.61;76.51
61769;BME280;47669;48.712;9.016;2024-02-26T00:23:46;94727.28;;;4.57;77.12
61769;BME280;47669;48.712;9.016;2024-02-26T00:26:11;94722.34;;;4.67;75.71
61769;BME280;47669;48.712;9.016;2024-02-26T00:28:37;94717.53;;;5.01;75.68
61769;BME280;47669;48.712;9.016;2024-02-26T00:31:02;94721.59;;;4.97;76.19
61769;BME280;47669;48.712;9.016;2024-02-26T00:33:28;94721.63;;;4.78;78.60
61769;BME280;47669;48.712;9.016;2024-02-26T00:35:53;94717.34;;;4.65;76.51
61769;BME280;47669;48.712;9.016;2024-02-26T00:38:18;94720.91;;;4.71;76.57
61769;BME280;47669;48.712;9.016;2024-02-26T00:40:44;94716.97;;;4.80;77.64
61769;BME280;47669;48.712;9.016;2024-02-26T00:43:09;94715.75;;;4.64;78.50
61769;BME280;47669;48.712;9.016;2024-02-26T00:45:34;94715.88;;;4.88;79.00
61769;BME280;47669;48.712;9.016;2024-02-26T00:48:00;94725.97;;;5.03;78.35
61769;BME280;47669;48.712;9.016;2024-02-26T00:50:29;94726.50;;;4.75;78.69
61769;BME280;47669;48.712;9.016;2024-02-26T00:52:55;94718.78;;;4.80;79.09
61769;BME280;47669;48.712;9.016;2024-02-26T00:55:20;94713.44;;;4.75;78.82
61769;BME280;47669;48.712;9.016;2024-02-26T00:57:45;94715.63;;;4.59;79.11
61769;BME280;47669;48.712;9.016;2024-02-26T01:00:11;94694.56;;;4.84;78.01
61769;BME280;47669;48.712;9.016;2024-02-26T01:02:37;94692.44;;;4.93;77.50
61769;BME280;47669;48.712;9.016;2024-02-26T01:05:03;94685.59;;;4.62;77.04
61769;BME280;47669;48.712;9.016;2024-02-26T01:07:29;94683.19;;;4.60;77.55
61769;BME280;47669;48.712;9.016;2024-02-26T01:09:54;94683.41;;;4.77;77.79
61769;BME280;47669;48.712;9.016;2024-02-26T01:12:19;94687.84;;;4.77;77.02
61769;BME280;47669;48.712;9.016;2024-02-26T01:14:44;94687.84;;;4.77;76.97
61769;BME280;47669;48.712;9.016;2024-02-26T01:17:10;94695.16;;;4.86;74.62
61769;BME280;47669;48.712;9.016;2024-02-26T01:19:35;94691.66;;;4.93;75.61
61769;BME280;47669;48.712;9.016;2024-02-26T01:22:00;94698.53;;;5.05;74.19
61769;BME280;47669;48.712;9.016;2024-02-26T01:24:25;94709.19;;;4.74;75.35
61769;BME280;47669;48.712;9.016;2024-02-26T01:26:51;94719.38;;;4.82;73.15
61769;BME280;47669;48.712;9.016;2024-02-26T01:29:16;94707.22;;;5.06;72.47
61769;BME280;47669;48.712;9.016;2024-02-26T01:31:41;94730.06;;;4.80;73.77
61769;BME280;47669;48.712;9.016;2024-02-26T01:34:06;94739.34;;;4.95;71.30
61769;BME280;47669;48.712;9.016;2024-02-26T01:36:32;94727.59;;;5.04;71.30
61769;BME280;47669;48.712;9.016;2024-02-26T01:38:57;94729.53;;;5.08;72.82
61769;BME280;47669;48.712;9.016;2024-02-26T01:41:22;94737.78;;;5.24;73.90
61769;BME280;47669;48.712;9.016;2024-02-26T01:43:48;94741.09;;;5.01;73.51
61769;BME280;47669;48.712;9.016;2024-02-26T01:46:14;94741.84;;;5.08;71.79
61769;BME280;47669;48.712;9.016;2024-02-26T01:48:41;94738.94;;;5.28;73.03
61769;BME280;47669;48.712;9.016;2024-02-26T01:51:07;94745.66;;;5.24;73.37
61769;BME280;47669;48.712;9.016;2024-02-26T01:53:33;94748.75;;;5.02;74.23
61769;BME280;47669;48.712;9.016;2024-02-26T01:55:59;94760.28;;;4.95;72.33
61769;BME280;47669;48.712;9.016;2024-02-26T01:58:24;94759.34;;;5.07;72.58
61769;BME280;47669;48.712;9.016;2024-02-26T02:00:50;94769.38;;;5.10;73.09
61769;BME280;47669;48.712;9.016;2024-02-26T02:03:15;94770.75;;;5.13;73.11
61769;BME280;47669;48.712;9.016;2024-02-26T02:05:41;94767.72;;;4.98;72.98
61769;BME280;47669;48.712;9.016;2024-02-26T02:08:10;94781.53;;;5.23;72.16
61769;BME280;47669;48.712;9.016;2024-02-26T02:10:36;94770.28;;;5.35;68.07
61769;BME280;47669;48.712;9.016;2024-02-26T02:13:03;94766.09;;;5.34;70.70
61769;BME280;47669;48.712;9.016;2024-02-26T02:15:28;94761.75;;;5.39;70.06
61769;BME280;47669;48.712;9.016;2024-02-26T02:17:53;94758.06;;;5.28;74.19
61769;BME280;47669;48.712;9.016;2024-02-26T02:20:18;94754.69;;;5.09;77.18
61769;BME280;47669;48.712;9.016;2024-02-26T02:22:45;94754.94;;;4.89;79.49
61769;BME280;47669;48.712;9.016;2024-02-26T02:25:10;94747.94;;;5.02;77.92
61769;BME280;47669;48.712;9.016;2024-02-26T02:27:36;94748.41;;;5.29;76.62
61769;BME280;47669;48.712;9.016;2024-02-26T02:30:02;94749.41;;;5.46;76.25
61769;BME280;47669;48.712;9.016;2024-02-26T02:32:28;94742.81;;;5.56;75.81
61769;BME280;47669;48.712;9.016;2024-02-26T02:34:54;94749.19;;;5.60;74.27
61769;BME280;47669;48.712;9.016;2024-02-26T02:37:20;94752.44;;;6.39;68.41
61769;BME280;47669;48.712;9.016;2024-02-26T02:39:45;94756.75;;;6.45;68.46
61769;BME280;47669;48.712;9.016;2024-02-26T02:42:10;94757.91;;;6.38;69.37
61769;BME280;47669;48.712;9.016;2024-02-26T02:44:36;94754.47;;;6.14;72.80
61769;BME280;47669;48.712;9.016;2024-02-26T02:47:01;94754.31;;;5.97;75.25
61769;BME280;47669;48.712;9.016;2024-02-26T02:49:26;94746.31;;;5.91;74.93
61769;BME280;47669;48.712;9.016;2024-02-26T02:51:51;94745.50;;;5.79;75.14
61769;BME280;47669;48.712;9.016;2024-02-26T02:54:19;94747.69;;;5.82;75.71
61769;BME280;47669;48.712;9.016;2024-02-26T02:56:44;94741.66;;;5.94;75.34
61769;BME280;47669;48.712;9.016;2024-02-26T02:59:10;94741.19;;;5.85;76.94
61769;BME280;47669;48.712;9.016;2024-02-26T03:01:35;94741.88;;;5.92;75.88
61769;BME280;47669;48.712;9.016;2024-02-26T03:04:00;94743.44;;;5.81;73.57
61769;BME280;47669;48.712;9.016;2024-02-26T03:06:25;94745.81;;;6.48;66.64
61769;BME280;47669;48.712;9.016;2024-02-26T03:08:52;94751.06;;;6.48;66.32
61769;BME280;47669;48.712;9.016;2024-02-26T03:11:18;94755.84;;;6.75;65.72
61769;BME280;47669;48.712;9.016;2024-02-26T03:13:44;94753.78;;;6.77;65.69
61769;BME280;47669;48.712;9.016;2024-02-26T03:16:09;94756.88;;;6.74;67.37
61769;BME280;47669;48.712;9.016;2024-02-26T03:18:34;94753.34;;;6.57;69.09
61769;BME280;47669;48.712;9.016;2024-02-26T03:21:00;94751.75;;;6.56;69.89
61769;BME280;47669;48.712;9.016;2024-02-26T03:23:25;94748.56;;;6.42;72.07
61769;BME280;47669;48.712;9.016;2024-02-26T03:25:50;94735.31;;;6.37;72.51
61769;BME280;47669;48.712;9.016;2024-02-26T03:28:16;94734.06;;;6.27;73.16
61769;BME280;47669;48.712;9.016;2024-02-26T03:30:41;94730.41;;;6.28;74.08
61769;BME280;47669;48.712;9.016;2024-02-26T03:33:06;94713.09;;;6.27;73.69
61769;BME280;47669;48.712;9.016;2024-02-26T03:35:31;94701.78;;;6.15;76.24
61769;BME280;47669;48.712;9.016;2024-02-26T03:37:57;94698.59;;;6.13;75.39
61769;BME280;47669;48.712;9.016;2024-02-26T03:40:22;94695.19;;;6.13;76.21
61769;BME280;47669;48.712;9.016;2024-02-26T03:42:47;94692.00;;;6.10;77.96
61769;BME280;47669;48.712;9.016;2024-02-26T03:45:12;94698.94;;;6.05;76.34
61769;BME280;47669;48.712;9.016;2024-02-26T03:47:38;94703.34;;;5.92;77.81
61769;BME280;47669;48.712;9.016;2024-02-26T03:50:05;94709.00;;;5.78;78.68
61769;BME280;47669;48.712;9.016;2024-02-26T03:52:31;94701.28;;;5.83;79.48
61769;BME280;47669;48.712;9.016;2024-02-26T03:54:56;94704.94;;;5.94;78.35
61769;BME280;47669;48.712;9.016;2024-02-26T03:57:22;94695.25;;;5.94;80.31
61769;BME280;47669;48.712;9.016;2024-02-26T03:59:47;94683.72;;;5.83;79.66
61769;BME280;47669;48.712;9.016;2024-02-26T04:02:12;94682.72;;;5.84;79.14
61769;BME280;47669;48.712;9.016;2024-02-26T04:04:37;94679.50;;;5.70;80.17
61769;BME280;47669;48.712;9.016;2024-02-26T04:07:03;94683.38;;;5.68;80.60
61769;BME280;47669;48.712;9.016;2024-02-26T04:09:31;94676.75;;;5.65;80.40
61769;BME280;47669;48.712;9.016;2024-02-26T04:11:56;94683.69;;;5.60;80.55
61769;BME280;47669;48.712;9.016;2024-02-26T04:14:21;94683.69;;;5.60;81.54
61769;BME280;47669;48.712;9.016;2024-02-26T04:16:47;94695.00;;;5.72;80.59
61769;BME280;47669;48.712;9.016;2024-02-26T04:19:16;94693.84;;;5.80;80.34
61769;BME280;47669;48.712;9.016;2024-02-26T04:21:41;94704.13;;;5.69;80.27
61769;BME280;47669;48.712;9.016;2024-02-26T04:24:07;94688.34;;;5.58;80.29
61769;BME280;47669;48.712;9.016;2024-02-26T04:26:32;94705.13;;;5.68;80.97
61769;BME280;47669;48.712;9.016;2024-02-26T04:28:57;94703.63;;;5.61;81.77
61769;BME280;47669;48.712;9.016;2024-02-26T04:31:23;94707.31;;;5.71;81.32
61769;BME280;47669;48.712;9.016;2024-02-26T04:33:48;94706.81;;;5.63;81.40
61769;BME280;47669;48.712;9.016;2024-02-26T04:36:14;94711.00;;;5.52;80.87
61769;BME280;47669;48.712;9.016;2024-02-26T04:38:43;94697.94;;;5.64;79.92
61769;BME280;47669;48.712;9.016;2024-02-26T04:41:08;94706.59;;;5.64;79.63
61769;BME280;47669;48.712;9.016;2024-02-26T04:43:34;94709.31;;;5.58;80.41
61769;BME280;47669;48.712;9.016;2024-02-26T04:45:59;94710.78;;;5.54;78.81
61769;BME280;47669;48.712;9.016;2024-02-26T04:48:24;94715.88;;;5.79;75.45
61769;BME280;47669;48.712;9.016;2024-02-26T04:50:49;94710.56;;;5.97;74.79
61769;BME280;47669;48.712;9.016;2024-02-26T04:53:15;94713.03;;;5.92;73.22
61769;BME280;47669;48.712;9.016;2024-02-26T04:55:40;94716.91;;;5.89;74.48
61769;BME280;47669;48.712;9.016;2024-02-26T04:58:05;94715.50;;;6.05;74.57
61769;BME280;47669;48.712;9.016;2024-02-26T05:00:30;94715.25;;;5.95;72.68
61769;BME280;47669;48.712;9.016;2024-02-26T05:02:56;94717.69;;;5.90;72.19
61769;BME280;47669;48.712;9.016;2024-02-26T05:05:21;94723.97;;;5.89;73.56
61769;BME280;47669;48.712;9.016;2024-02-26T05:07:47;94732.28;;;5.86;74.67
61769;BME280;47669;48.712;9.016;2024-02-26T05:10:12;94739.00;;;5.82;76.18
61769;BME280;47669;48.712;9.016;2024-02-26T05:12:37;94728.84;;;5.74;76.88
61769;BME280;47669;48.712;9.016;2024-02-26T05:15:04;94733.47;;;5.60;76.45
61769;BME280;47669;48.712;9.016;2024-02-26T05:17:29;94735.88;;;5.61;76.60
61769;BME280;47669;48.712;9.016;2024-02-26T05:19:54;94732.63;;;5.36;78.76
61769;BME280;47669;48.712;9.016;2024-02-26T05:22:20;94743.38;;;5.58;78.05
61769;BME280;47669;48.712;9.016;2024-02-26T05:24:45;94754.75;;;5.94;74.75
61769;BME280;47669;48.712;9.016;2024-02-26T05:27:10;94758.41;;;5.50;77.08
61769;BME280;47669;48.712;9.016;2024-02-26T05:29:37;94762.72;;;5.45;79.39
61769;BME280;47669;48.712;9.016;2024-02-26T05:32:02;94772.69;;;5.36;79.32
61769;BME280;47669;48.712;9.016;2024-02-26T05:34:28;94760.44;;;5.48;80.82
61769;BME280;47669;48.712;9.016;2024-02-26T05:36:55;94779.56;;;5.19;81.50
61769;BME280;47669;48.712;9.016;2024-02-26T05:39:20;94774.59;;;5.29;80.84
61769;BME280;47669;48.712;9.016;2024-02-26T05:41:45;94789.00;;;5.20;80.23
61769;BME280;47669;48.712;9.016;2024-02-26T05:44:11;94787.75;;;5.22;79.34
61769;BME280;47669;48.712;9.016;2024-02-26T05:46:36;94781.03;;;5.45;80.21
61769;BME280;47669;48.712;9.016;2024-02-26T05:49:01;94784.50;;;5.08;85.39
61769;BME280;47669;48.712;9.016;2024-02-26T05:51:27;94777.75;;;5.19;85.11
61769;BME280;47669;48.712;9.016;2024-02-26T05:53:53;94768.75;;;5.27;81.99
61769;BME280;47669;48.712;9.016;2024-02-26T05:56:24;94772.72;;;4.99;87.04
61769;BME280;47669;48.712;9.016;2024-02-26T05:58:49;94771.88;;;4.87;86.51
61769;BME280;47669;48.712;9.016;2024-02-26T06:01:16;94779.91;;;4.67;89.08
61769;BME280;47669;48.712;9.016;2024-02-26T06:03:42;94774.03;;;4.90;88.57
61769;BME280;47669;48.712;9.016;2024-02-26T06:06:07;94780.13;;;4.65;90.34
61769;BME280;47669;48.712;9.016;2024-02-26T06:08:32;94777.44;;;4.54;91.07
61769;BME280;47669;48.712;9.016;2024-02-26T06:10:58;94778.16;;;4.61;91.13
61769;BME280;47669;48.712;9.016;2024-02-26T06:13:23;94776.81;;;4.77;91.15
61769;BME280;47669;48.712;9.016;2024-02-26T06:15:48;94781.44;;;4.56;91.90
61769;BME280;47669;48.712;9.016;2024-02-26T06:18:13;94770.47;;;4.66;92.14
61769;BME280;47669;48.712;9.016;2024-02-26T06:20:39;94782.03;;;4.58;92.12
61769;BME280;47669;48.712;9.016;2024-02-26T06:23:04;94778.72;;;4.44;93.14
61769;BME280;47669;48.712;9.016;2024-02-26T06:25:29;94783.59;;;4.41;92.99
61769;BME280;47669;48.712;9.016;2024-02-26T06:27:55;94793.47;;;4.39;93.21
61769;BME280;47669;48.712;9.016;2024-02-26T06:30:20;94795.16;;;4.52;93.08
61769;BME280;47669;48.712;9.016;2024-02-26T06:32:45;94798.97;;;4.31;93.32
61769;BME280;47669;48.712;9.016;2024-02-26T06:35:11;94803.13;;;4.38;93.43
61769;BME280;47669;48.712;9.016;2024-02-26T06:37:36;94804.06;;;4.69;92.38
61769;BME280;47669;48.712;9.016;2024-02-26T06:40:02;94814.72;;;4.49;93.14
61769;BME280;47669;48.712;9.016;2024-02-26T06:42:32;94807.81;;;4.55;93.34
61769;BME280;47669;48.712;9.016;2024-02-26T06:44:57;94816.75;;;4.22;93.88
61769;BME280;47669;48.712;9.016;2024-02-26T06:47:23;94820.09;;;4.29;93.72
61769;BME280;47669;48.712;9.016;2024-02-26T06:49:48;94824.31;;;4.30;93.38
61769;BME280;47669;48.712;9.016;2024-02-26T06:52:13;94830.56;;;4.54;92.24
61769;BME280;47669;48.712;9.016;2024-02-26T06:54:39;94835.31;;;4.64;91.98
61769;BME280;47669;48.712;9.016;2024-02-26T06:57:04;94834.47;;;4.45;93.34
61769;BME280;47669;48.712;9.016;2024-02-26T06:59:29;94843.09;;;4.71;92.43
61769;BME280;47669;48.712;9.016;2024-02-26T07:01:55;94838.00;;;4.57;92.78
61769;BME280;47669;48.712;9.016;2024-02-26T07:04:20;94844.19;;;4.81;91.95
61769;BME280;47669;48.712;9.016;2024-02-26T07:06:45;94842.66;;;4.74;93.25
61769;BME280;47669;48.712;9.016;2024-02-26T07:09:11;94837.00;;;4.95;92.17
61769;BME280;47669;48.712;9.016;2024-02-26T07:11:37;94844.94;;;5.07;92.00
61769;BME280;47669;48.712;9.016;2024-02-26T07:14:02;94842.53;;;5.05;91.44
61769;BME280;47669;48.712;9.016;2024-02-26T07:16:28;94849.69;;;4.98;91.69
61769;BME280;47669;48.712;9.016;2024-02-26T07:18:53;94849.59;;;5.05;91.55
61769;BME280;47669;48.712;9.016;2024-02-26T07:21:19;94838.47;;;5.28;90.40
61769;BME280;47669;48.712;9.016;2024-02-26T07:23:44;94844.63;;;5.52;89.62
61769;BME280;47669;48.712;9.016;2024-02-26T07:26:09;94840.56;;;5.56;89.06
61769;BME280;47669;48.712;9.016;2024-02-26T07:28:37;94849.59;;;5.42;90.76
61769;BME280;47669;48.712;9.016;2024-02-26T07:31:02;94848.88;;;5.35;87.30
61769;BME280;47669;48.712;9.016;2024-02-26T07:33:28;94853.50;;;5.69;86.32
61769;BME280;47669;48.712;9.016;2024-02-26T07:35:53;94845.56;;;5.76;88.01
61769;BME280;47669;48.712;9.016;2024-02-26T07:38:18;94845.47;;;5.83;87.61
61769;BME280;47669;48.712;9.016;2024-02-26T07:40:44;94845.38;;;5.89;87.63
61769;BME280;47669;48.712;9.016;2024-02-26T07:43:09;94850.41;;;5.91;87.17
61769;BME280;47669;48.712;9.016;2024-02-26T07:45:34;94848.28;;;6.00;86.27
61769;BME280;47669;48.712;9.016;2024-02-26T07:48:01;94850.59;;;6.08;84.84
61769;BME280;47669;48.712;9.016;2024-02-26T07:50:27;94850.44;;;6.03;84.76
61769;BME280;47669;48.712;9.016;2024-02-26T07:52:52;94851.19;;;6.10;87.53
61769;BME280;47669;48.712;9.016;2024-02-26T07:55:18;94847.50;;;5.99;86.44
61769;BME280;47669;48.712;9.016;2024-02-26T07:57:44;94856.63;;;6.08;85.57
61769;BME280;47669;48.712;9.016;2024-02-26T08:00:09;94850.13;;;6.11;85.32
61769;BME280;47669;48.712;9.016;2024-02-26T08:02:38;94852.09;;;6.16;85.08
61769;BME280;47669;48.712;9.016;2024-02-26T08:05:04;94856.00;;;6.25;81.92
61769;BME280;47669;48.712;9.016;2024-02-26T08:07:30;94857.25;;;6.22;83.54
61769;BME280;47669;48.712;9.016;2024-02-26T08:09:55;94855.53;;;6.28;83.04
61769;BME280;47669;48.712;9.016;2024-02-26T08:12:20;94856.28;;;6.59;82.44
61769;BME280;47669;48.712;9.016;2024-02-26T08:14:46;94852.75;;;6.65;83.13
61769;BME280;47669;48.712;9.016;2024-02-26T08:17:11;94847.03;;;6.68;82.37
61769;BME280;47669;48.712;9.016;2024-02-26T08:19:37;94841.69;;;6.75;83.34
61769;BME280;47669;48.712;9.016;2024-02-26T08:22:02;94842.72;;;6.73;82.65
61769;BME280;47669;48.712;9.016;2024-02-26T08:24:28;94849.44;;;6.81;80.06
61769;BME280;47669;48.712;9.016;2024-02-26T08:26:53;94843.28;;;6.87;81.57
61769;BME280;47669;48.712;9.016;2024-02-26T08:29:19;94843.84;;;7.01;79.80
61769;BME280;47669;48.712;9.016;2024-02-26T08:31:44;94847.97;;;6.97;80.90
61769;BME280;47669;48.712;9.016;2024-02-26T08:34:09;94852.19;;;6.86;81.38
61769;BME280;47669;48.712;9.016;2024-02-26T08:36:35;94852.63;;;7.07;80.40
61769;BME280;47669;48.712;9.016;2024-02-26T08:39:00;94857.09;;;7.18;79.56
61769;BME280;47669;48.712;9.016;2024-02-26T08:41:26;94859.59;;;7.13;79.82
61769;BME280;47669;48.712;9.016;2024-02-26T08:43:51;94868.28;;;7.13;79.39
61769;BME280;47669;48.712;9.016;2024-02-26T08:46:16;94863.59;;;6.80;77.79
61769;BME280;47669;48.712;9.016;2024-02-26T08:48:42;94865.63;;;6.90;78.33
61769;BME280;47669;48.712;9.016;2024-02-26T08:51:08;94875.22;;;6.96;78.48
61769;BME280;47669;48.712;9.016;2024-02-26T08:53:34;94877.09;;;7.07;79.13
61769;BME280;47669;48.712;9.016;2024-02-26T08:56:00;94884.97;;;6.84;78.29
61769;BME280;47669;48.712;9.016;2024-02-26T08:58:27;94890.41;;;6.94;80.16
61769;BME280;47669;48.712;9.016;2024-02-26T09:00:52;94883.47;;;7.11;79.37
61769;BME280;47669;48.712;9.016;2024-02-26T09:03:17;94881.88;;;6.99;77.83
61769;BME280;47669;48.712;9.016;2024-02-26T09:05:43;94886.44;;;7.03;77.63
61769;BME280;47669;48.712;9.016;2024-02-26T09:08:08;94884.97;;;7.07;77.39
61769;BME280;47669;48.712;9.016;2024-02-26T09:10:34;94886.66;;;7.25;77.55
61769;BME280;47669;48.712;9.016;2024-02-26T09:12:59;94881.16;;;7.27;73.55
61769;BME280;47669;48.712;9.016;2024-02-26T09:15:24;94885.50;;;7.21;74.33
61769;BME280;47669;48.712;9.016;2024-02-26T09:17:50;94871.31;;;7.34;73.46
61769;BME280;47669;48.712;9.016;2024-02-26T09:20:16;94868.69;;;7.34;75.28
61769;BME280;47669;48.712;9.016;2024-02-26T09:22:47;94877.16;;;7.36;75.59
61769;BME280;47669;48.712;9.016;2024-02-26T09:25:13;94874.22;;;7.32;72.90
61769;BME280;47669;48.712;9.016;2024-02-26T09:27:41;94878.72;;;7.49;72.76
61769;BME280;47669;48.712;9.016;2024-02-26T09:30:07;94872.19;;;7.63;71.68
61769;BME280;47669;48.712;9.016;2024-02-26T09:32:33;94873.66;;;7.71;72.10
61769;BME280;47669;48.712;9.016;2024-02-26T09:34:58;94871.91;;;7.77;74.00
61769;BME280;47669;48.712;9.016;2024-02-26T09:37:23;94871.47;;;7.68;73.24
61769;BME280;47669;48.712;9.016;2024-02-26T09:39:49;94869.22;;;7.60;71.81
61769;BME280;47669;48.712;9.016;2024-02-26T09:42:18;94872.63;;;8.01;72.87
61769;BME280;47669;48.712;9.016;2024-02-26T09:44:44;94870.78;;;8.30;71.70
61769;BME280;47669;48.712;9.016;2024-02-26T09:47:10;94868.34;;;8.57;70.71
61769;BME280;47669;48.712;9.016;2024-02-26T09:49:37;94873.88;;;8.72;68.07
61769;BME280;47669;48.712;9.016;2024-02-26T09:52:04;94874.81;;;9.00;71.11
61769;BME280;47669;48.712;9.016;2024-02-26T09:54:31;94885.19;;;9.07;69.11
61769;BME280;47669;48.712;9.016;2024-02-26T09:56:59;94888.59;;;9.24;68.05
61769;BME280;47669;48.712;9.016;2024-02-26T09:59:26;94884.63;;;9.22;66.50
61769;BME280;47669;48.712;9.016;2024-02-26T10:01:53;94887.97;;;9.17;68.51
61769;BME280;47669;48.712;9.016;2024-02-26T10:04:19;94883.66;;;9.28;66.60
61769;BME280;47669;48.712;9.016;2024-02-26T10:06:45;94886.69;;;9.20;63.69
61769;BME280;47669;48.712;9.016;2024-02-26T10:09:12;94893.19;;;9.51;64.92
61769;BME280;47669;48.712;9.016;2024-02-26T10:11:38;94887.72;;;9.79;64.85
61769;BME280;47669;48.712;9.016;2024-02-26T10:14:05;94893.13;;;10.12;62.39
61769;BME280;47669;48.712;9.016;2024-02-26T10:16:30;94899.66;;;9.82;61.17
61769;BME280;47669;48.712;9.016;2024-02-26T10:18:56;94890.44;;;10.34;63.58
61769;BME280;47669;48.712;9.016;2024-02-26T10:21:22;94896.47;;;10.07;61.66
61769;BME280;47669;48.712;9.016;2024-02-26T10:23:48;94887.63;;;10.18;63.76
61769;BME280;47669;48.712;9.016;2024-02-26T10:26:15;94883.19;;;10.24;63.12
61769;BME280;47669;48.712;9.016;2024-02-26T10:28:44;94892.25;;;10.06;59.46
61769;BME280;47669;48.712;9.016;2024-02-26T10:31:10;94889.47;;;10.40;61.17
61769;BME280;47669;48.712;9.016;2024-02-26T10:33:37;94893.22;;;10.49;61.51
61769;BME280;47669;48.712;9.016;2024-02-26T10:36:06;94888.34;;;10.36;57.05
61769;BME280;47669;48.712;9.016;2024-02-26T10:38:33;94888.78;;;10.55;58.36
61769;BME280;47669;48.712;9.016;2024-02-26T10:40:59;94877.47;;;10.59;57.69
61769;BME280;47669;48.712;9.016;2024-02-26T10:43:25;94894.63;;;10.57;55.16
61769;BME280;47669;48.712;9.016;2024-02-26T10:45:50;94896.06;;;10.70;57.38
61769;BME280;47669;48.712;9.016;2024-02-26T10:48:16;94897.25;;;10.84;58.74
61769;BME280;47669;48.712;9.016;2024-02-26T10:50:42;94906.88;;;10.68;56.54
61769;BME280;47669;48.712;9.016;2024-02-26T10:53:15;94913.84;;;10.79;56.49
61769;BME280;47669;48.712;9.016;2024-02-26T10:55:43;94909.72;;;10.94;56.41
61769;BME280;47669;48.712;9.016;2024-02-26T10:58:12;94909.59;;;10.78;56.88
61769;BME280;47669;48.712;9.016;2024-02-26T11:00:38;94907.53;;;11.18;55.63
61769;BME280;47669;48.712;9.016;2024-02-26T11:03:04;94912.38;;;11.31;52.92
61769;BME280;47669;48.712;9.016;2024-02-26T11:05:33;94904.56;;;11.52;54.80
61769;BME280;47669;48.712;9.016;2024-02-26T11:08:00;94907.53;;;11.66;53.29
61769;BME280;47669;48.712;9.016;2024-02-26T11:10:26;94905.13;;;11.59;52.35
61769;BME280;47669;48.712;9.016;2024-02-26T11:12:54;94911.91;;;11.45;53.54
61769;BME280;47669;48.712;9.016;2024-02-26T11:15:19;94919.06;;;11.44;53.06
61769;BME280;47669;48.712;9.016;2024-02-26T11:17:46;94913.47;;;11.35;51.66
61769;BME280;47669;48.712;9.016;2024-02-26T11:20:11;94915.34;;;11.03;53.42
61769;BME280;47669;48.712;9.016;2024-02-26T11:22:38;94919.47;;;10.88;53.51
61769;BME280;47669;48.712;9.016;2024-02-26T11:25:04;94921.38;;;10.98;54.17
61769;BME280;47669;48.712;9.016;2024-02-26T11:27:34;94928.22;;;10.94;53.54
61769;BME280;47669;48.712;9.016;2024-02-26T11:30:01;94929.50;;;11.24;53.79
61769;BME280;47669;48.712;9.016;2024-02-26T11:32:27;94931.88;;;11.20;53.52
61769;BME280;47669;48.712;9.016;2024-02-26T11:34:55;94932.75;;;11.36;54.08
61769;BME280;47669;48.712;9.016;2024-02-26T11:37:21;94933.34;;;11.43;52.95
61769;BME280;47669;48.712;9.016;2024-02-26T11:39:48;94919.34;;;11.90;52.46
61769;BME280;47669;48.712;9.016;2024-02-26T11:42:16;94922.00;;;11.95;51.47
61769;BME280;47669;48.712;9.016;2024-02-26T11:44:42;94926.06;;;12.24;53.28
61769;BME280;47669;48.712;9.016;2024-02-26T11:47:34;94928.53;;;11.35;50.76
61769;BME280;47669;48.712;9.016;2024-02-26T11:50:32;94930.50;;;11.55;51.37
61769;BME280;47669;48.712;9.016;2024-02-26T11:53:31;94924.25;;;11.29;52.95
61769;BME280;47669;48.712;9.016;2024-02-26T11:58:58;94937.00;;;10.99;52.09
61769;BME280;47669;48.712;9.016;2024-02-26T12:01:46;94932.34;;;11.12;53.82
61769;BME280;47669;48.712;9.016;2024-02-26T12:04:22;94939.25;;;10.86;53.03
61769;BME280;47669;48.712;9.016;2024-02-26T12:06:53;94940.72;;;10.71;53.02
61769;BME280;47669;48.712;9.016;2024-02-26T12:09:42;94941.56;;;10.77;52.45
61769;BME280;47669;48.712;9.016;2024-02-26T12:12:09;94934.16;;;10.74;53.81
61769;BME280;47669;48.712;9.016;2024-02-26T12:14:51;94941.84;;;10.48;54.01
61769;BME280;47669;48.712;9.016;2024-02-26T12:17:20;94948.75;;;10.54;55.35
61769;BME280;47669;48.712;9.016;2024-02-26T12:19:46;94955.38;;;10.57;54.65
61769;BME280;47669;48.712;9.016;2024-02-26T12:22:15;94949.47;;;10.77;56.38
61769;BME280;47669;48.712;9.016;2024-02-26T12:24:42;94954.16;;;10.65;55.44
61769;BME280;47669;48.712;9.016;2024-02-26T12:27:07;94953.06;;;10.93;55.47
61769;BME280;47669;48.712;9.016;2024-02-26T12:29:32;94951.78;;;11.00;55.73
61769;BME280;47669;48.712;9.016;2024-02-26T12:31:57;94957.38;;;11.04;54.62
61769;BME280;47669;48.712;9.016;2024-02-26T12:34:23;94955.91;;;11.18;52.27
61769;BME280;47669;48.712;9.016;2024-02-26T12:36:48;94952.75;;;11.21;54.30
61769;BME280;47669;48.712;9.016;2024-02-26T12:39:14;94944.09;;;11.26;53.57
61769;BME280;47669;48.712;9.016;2024-02-26T12:41:40;94942.53;;;11.35;52.28
61769;BME280;47669;48.712;9.016;2024-02-26T12:44:07;94943.72;;;11.50;51.76
61769;BME280;47669;48.712;9.016;2024-02-26T12:46:33;94948.72;;;11.51;54.27
61769;BME280;47669;48.712;9.016;2024-02-26T12:48:58;94949.25;;;11.48;54.42
61769;BME280;47669;48.712;9.016;2024-02-26T12:51:25;94938.47;;;11.60;53.95
61769;BME280;47669;48.712;9.016;2024-02-26T12:53:51;94949.13;;;11.75;54.35
61769;BME280;47669;48.712;9.016;2024-02-26T12:56:18;94951.34;;;11.89;54.12
61769;BME280;47669;48.712;9.016;2024-02-26T12:58:44;94950.44;;;12.26;54.34
61769;BME280;47669;48.712;9.016;2024-02-26T13:01:14;94954.19;;;12.35;52.54
61769;BME280;47669;48.712;9.016;2024-02-26T13:03:40;94957.06;;;12.33;53.02
61769;BME280;47669;48.712;9.016;2024-02-26T13:06:06;94956.88;;;12.66;50.35